createdAt,value
2023-05-24T00:00:32.785Z,3.07
2023-05-24T00:03:00.793Z,3.47
2023-05-24T00:05:31.037Z,3.83
2023-05-24T00:08:00.519Z,3.43
2023-05-24T00:10:28.291Z,3.90
2023-05-24T00:12:56.213Z,3.90
2023-05-24T00:15:24.305Z,3.37
2023-05-24T00:17:52.328Z,3.63
2023-05-24T00:20:20.752Z,3.57
2023-05-24T00:22:48.967Z,3.80
2023-05-24T00:25:18.602Z,3.73
2023-05-24T00:27:46.571Z,4.40
2023-05-24T00:30:14.664Z,4.30
2023-05-24T00:32:42.702Z,4.27
2023-05-24T00:35:11.451Z,4.43
2023-05-24T00:37:44.941Z,3.80
2023-05-24T00:40:13.533Z,4.13
2023-05-24T00:42:42.733Z,4.13
2023-05-24T00:45:11.356Z,4.83
2023-05-24T00:47:39.967Z,4.50
2023-05-24T00:50:13.148Z,4.20
2023-05-24T00:52:43.030Z,4.63
2023-05-24T00:55:13.535Z,5.00
2023-05-24T00:57:43.000Z,4.83
2023-05-24T01:00:13.448Z,3.90
2023-05-24T01:02:41.812Z,4.10
2023-05-24T01:05:13.521Z,4.40
2023-05-24T01:07:54.584Z,4.60
2023-05-24T01:10:34.861Z,4.77
2023-05-24T01:13:15.649Z,4.53
2023-05-24T01:15:56.592Z,4.10
2023-05-24T01:18:33.150Z,4.50
2023-05-24T01:21:24.885Z,4.83
2023-05-24T01:24:14.287Z,4.80
2023-05-24T01:26:56.120Z,4.90
2023-05-24T01:29:26.393Z,4.93
2023-05-24T01:31:54.450Z,4.47
2023-05-24T01:34:22.352Z,5.43
2023-05-24T01:36:50.514Z,5.30
2023-05-24T01:39:19.549Z,5.00
2023-05-24T01:42:05.190Z,5.03
2023-05-24T01:44:40.115Z,5.47
2023-05-24T01:47:27.398Z,5.28
2023-05-24T01:50:07.180Z,5.23
2023-05-24T01:52:36.276Z,5.30
2023-05-24T01:55:08.257Z,5.07
2023-05-24T01:57:41.418Z,5.20
2023-05-24T02:00:14.171Z,5.00
2023-05-24T02:02:42.409Z,6.23
2023-05-24T02:05:11.878Z,5.03
2023-05-24T02:07:41.291Z,5.17
2023-05-24T02:10:10.245Z,4.90
2023-05-24T02:12:39.622Z,5.20
2023-05-24T02:15:10.598Z,5.57
2023-05-24T02:17:38.631Z,5.90
2023-05-24T02:20:08.490Z,5.17
2023-05-24T02:22:36.601Z,5.53
2023-05-24T02:25:06.132Z,6.00
2023-05-24T02:27:34.167Z,5.57
2023-05-24T02:30:04.076Z,5.53
2023-05-24T02:32:32.916Z,5.93
2023-05-24T02:35:01.919Z,6.03
2023-05-24T02:37:29.802Z,5.40
2023-05-24T02:39:57.683Z,6.30
2023-05-24T02:42:25.739Z,5.97
2023-05-24T02:44:53.617Z,6.20
2023-05-24T02:47:22.951Z,5.97
2023-05-24T02:49:51.572Z,6.17
2023-05-24T02:52:22.830Z,5.70
2023-05-24T02:54:51.141Z,5.67
2023-05-24T02:57:20.686Z,6.13
2023-05-24T02:59:48.919Z,6.87
2023-05-24T03:02:19.543Z,5.43
2023-05-24T03:04:48.951Z,6.10
2023-05-24T03:07:17.212Z,5.77
2023-05-24T03:09:45.272Z,6.57
2023-05-24T03:12:13.974Z,6.03
2023-05-24T03:14:41.862Z,6.80
2023-05-24T03:17:09.810Z,6.17
2023-05-24T03:19:37.748Z,5.63
2023-05-24T03:22:07.061Z,6.30
2023-05-24T03:24:38.355Z,6.70
2023-05-24T03:27:06.600Z,6.57
2023-05-24T03:29:34.587Z,7.00
2023-05-24T03:32:02.822Z,6.27
2023-05-24T03:34:31.412Z,7.23
2023-05-24T03:36:59.386Z,6.83
2023-05-24T03:39:28.701Z,6.47
2023-05-24T03:42:08.785Z,7.43
2023-05-24T03:44:38.895Z,7.13
2023-05-24T03:47:07.764Z,6.60
2023-05-24T03:49:35.805Z,6.80
2023-05-24T03:52:03.945Z,6.73
2023-05-24T03:54:33.176Z,6.30
2023-05-24T03:57:01.638Z,5.90
2023-05-24T03:59:30.915Z,6.20
2023-05-24T04:01:58.827Z,6.33
2023-05-24T04:04:26.852Z,7.10
2023-05-24T04:06:56.213Z,5.70
2023-05-24T04:09:24.651Z,6.57
2023-05-24T04:11:53.934Z,5.77
2023-05-24T04:14:21.910Z,6.33
2023-05-24T04:16:49.739Z,6.00
2023-05-24T04:19:20.141Z,7.00
2023-05-24T04:21:48.268Z,6.10
2023-05-24T04:24:16.382Z,6.03
2023-05-24T04:26:45.587Z,6.80
2023-05-24T04:29:14.969Z,6.10
2023-05-24T04:31:44.848Z,6.40
2023-05-24T04:34:14.360Z,6.53
2023-05-24T04:36:42.980Z,6.63
2023-05-24T04:39:12.996Z,6.10
2023-05-24T04:41:40.975Z,6.47
2023-05-24T04:44:09.899Z,6.37
2023-05-24T04:46:39.235Z,6.27
2023-05-24T04:49:08.432Z,6.43
2023-05-24T04:51:38.517Z,5.67
2023-05-24T04:54:08.979Z,5.67
2023-05-24T04:56:38.780Z,5.17
2023-05-24T04:59:08.223Z,5.50
2023-05-24T05:01:36.562Z,5.27
2023-05-24T05:04:06.238Z,5.37
2023-05-24T05:06:38.341Z,5.33
2023-05-24T05:09:09.341Z,6.03
2023-05-24T05:11:37.574Z,6.13
2023-05-24T05:14:06.235Z,6.07
2023-05-24T05:16:34.160Z,5.40
2023-05-24T05:19:04.488Z,5.83
2023-05-24T05:21:34.958Z,4.93
2023-05-24T05:24:04.065Z,6.47
2023-05-24T05:26:31.989Z,5.93
2023-05-24T05:28:59.946Z,6.00
2023-05-24T05:31:27.737Z,5.93
2023-05-24T05:33:55.600Z,5.83
2023-05-24T05:36:23.537Z,6.03
2023-05-24T05:38:52.903Z,4.90
2023-05-24T05:41:20.973Z,5.10
2023-05-24T05:43:49.027Z,5.90
2023-05-24T05:46:16.934Z,5.20
2023-05-24T05:48:46.462Z,6.27
2023-05-24T05:51:14.559Z,5.40
2023-05-24T05:53:42.449Z,5.53
2023-05-24T05:56:11.657Z,5.93
2023-05-24T05:58:39.782Z,5.47
2023-05-24T06:01:07.798Z,5.20
2023-05-24T06:03:36.046Z,5.43
2023-05-24T06:06:04.408Z,5.97
2023-05-24T06:08:34.961Z,5.80
2023-05-24T06:11:03.298Z,5.37
2023-05-24T06:13:33.044Z,5.37
2023-05-24T06:16:01.216Z,5.10
2023-05-24T06:18:30.620Z,5.87
2023-05-24T06:20:58.576Z,5.30
2023-05-24T06:23:26.485Z,5.27
2023-05-24T06:25:54.698Z,5.07
2023-05-24T06:28:22.742Z,5.33
2023-05-24T06:30:52.012Z,5.27
2023-05-24T06:33:19.984Z,5.30
2023-05-24T06:35:48.030Z,5.40
2023-05-24T06:38:16.129Z,5.10
2023-05-24T06:40:44.474Z,4.60
2023-05-24T06:43:12.537Z,5.23
2023-05-24T06:45:42.240Z,4.90
2023-05-24T06:48:12.471Z,4.47
2023-05-24T06:50:42.601Z,4.60
2023-05-24T06:53:10.853Z,4.90
2023-05-24T06:55:38.799Z,5.27
2023-05-24T06:58:07.041Z,5.27
2023-05-24T07:00:34.775Z,4.77
2023-05-24T07:03:02.785Z,5.03
2023-05-24T07:05:32.234Z,5.20
2023-05-24T07:08:00.159Z,5.20
2023-05-24T07:10:28.042Z,4.90
2023-05-24T07:12:56.132Z,4.23
2023-05-24T07:15:23.955Z,4.80
2023-05-24T07:17:51.861Z,4.63
2023-05-24T07:20:19.813Z,4.57
2023-05-24T07:22:49.133Z,4.37
2023-05-24T07:25:17.476Z,5.07
2023-05-24T07:27:45.669Z,4.10
2023-05-24T07:30:27.916Z,4.50
2023-05-24T07:35:29.233Z,3.43
2023-05-24T07:37:58.594Z,5.07
2023-05-24T07:40:26.652Z,3.83
2023-05-24T07:42:54.500Z,4.35
2023-05-24T07:45:22.890Z,4.40
2023-05-24T07:47:50.843Z,3.70
2023-05-24T07:50:19.286Z,4.05
2023-05-24T07:52:47.318Z,3.38
2023-05-24T07:55:16.588Z,4.17
2023-05-24T07:57:44.480Z,4.15
2023-05-24T08:00:16.622Z,3.88
2023-05-24T08:02:49.009Z,4.63
2023-05-24T08:05:17.682Z,4.60
2023-05-24T08:07:45.601Z,3.80
2023-05-24T08:10:14.068Z,3.83
2023-05-24T08:12:43.596Z,4.32
2023-05-24T08:15:11.860Z,3.30
2023-05-24T08:17:39.839Z,4.28
2023-05-24T08:20:16.944Z,3.75
2023-05-24T08:22:45.370Z,5.18
2023-05-24T08:25:13.174Z,4.20
2023-05-24T08:27:41.271Z,3.97
2023-05-24T08:30:12.546Z,4.35
2023-05-24T08:32:40.598Z,3.45
2023-05-24T08:35:19.482Z,4.38
2023-05-24T08:37:49.029Z,3.00
2023-05-24T08:40:18.208Z,4.32
2023-05-24T08:42:46.785Z,4.07
2023-05-24T08:45:18.056Z,3.85
2023-05-24T08:47:48.577Z,4.65
2023-05-24T08:50:17.841Z,4.50
2023-05-24T08:52:46.667Z,3.42
2023-05-24T08:55:16.148Z,4.82
2023-05-24T08:57:45.966Z,4.20
2023-05-24T09:00:17.020Z,4.47
2023-05-24T09:02:46.731Z,4.80
2023-05-24T09:05:17.411Z,4.90
2023-05-24T09:07:46.593Z,5.45
2023-05-24T09:10:15.639Z,3.20
2023-05-24T09:12:48.858Z,2.70
2023-05-24T09:15:19.185Z,4.43
2023-05-24T09:17:47.564Z,3.75
2023-05-24T09:20:15.714Z,4.32
2023-05-24T09:22:45.039Z,2.55
2023-05-24T09:25:14.887Z,4.10
2023-05-24T09:27:50.721Z,2.80
2023-05-24T09:30:21.590Z,3.72
2023-05-24T09:32:58.582Z,3.75
2023-05-24T09:35:27.196Z,4.32
2023-05-24T09:37:57.362Z,3.97
2023-05-24T09:40:26.335Z,4.78
2023-05-24T09:43:05.158Z,4.20
2023-05-24T09:45:40.984Z,3.75
2023-05-24T09:48:12.620Z,4.38
2023-05-24T09:50:41.550Z,3.95
2023-05-24T09:53:09.815Z,4.32
2023-05-24T09:55:38.204Z,4.05
2023-05-24T09:58:08.448Z,4.60
2023-05-24T10:00:41.605Z,4.55
2023-05-24T10:03:12.808Z,4.32
2023-05-24T10:05:44.732Z,4.28
2023-05-24T10:08:14.425Z,4.30
2023-05-24T10:10:43.667Z,4.03
2023-05-24T10:13:15.780Z,3.90
2023-05-24T10:15:45.497Z,5.00
2023-05-24T10:18:14.386Z,3.00
2023-05-24T10:20:43.209Z,4.07
2023-05-24T10:23:19.217Z,3.92
2023-05-24T10:25:53.816Z,3.92
2023-05-24T10:28:24.857Z,4.47
2023-05-24T10:31:07.495Z,4.25
2023-05-24T10:33:38.172Z,3.75
2023-05-24T10:36:10.621Z,4.80
2023-05-24T10:38:41.731Z,4.30
2023-05-24T10:41:09.789Z,4.47
2023-05-24T10:43:38.809Z,3.70
2023-05-24T10:46:10.884Z,3.63
2023-05-24T10:48:41.461Z,4.50
2023-05-24T10:51:33.642Z,4.45
2023-05-24T10:54:13.715Z,5.03
2023-05-24T10:56:44.609Z,5.53
2023-05-24T10:59:32.008Z,4.63
2023-05-24T11:02:01.957Z,4.53
2023-05-24T11:04:37.815Z,4.22
2023-05-24T11:07:11.581Z,4.30
2023-05-24T11:09:47.241Z,4.57
2023-05-24T11:12:17.731Z,3.78
2023-05-24T11:14:52.345Z,4.07
2023-05-24T11:17:23.848Z,4.00
2023-05-24T11:19:54.523Z,3.72
2023-05-24T11:22:26.763Z,4.20
2023-05-24T11:24:54.883Z,4.03
2023-05-24T11:27:24.332Z,4.65
2023-05-24T11:29:52.885Z,4.30
2023-05-24T11:32:24.009Z,4.40
2023-05-24T11:34:52.464Z,3.72
2023-05-24T11:37:28.632Z,4.63
2023-05-24T11:40:05.132Z,4.60
2023-05-24T11:42:34.047Z,4.60
2023-05-24T11:45:02.038Z,3.83
2023-05-24T11:47:35.109Z,4.20
2023-05-24T11:50:03.423Z,4.43
2023-05-24T11:52:31.388Z,4.32
2023-05-24T11:54:59.333Z,4.20
2023-05-24T11:57:38.285Z,4.00
2023-05-24T12:00:11.448Z,4.45
2023-05-24T12:02:42.300Z,4.07
2023-05-24T12:05:12.527Z,4.47
2023-05-24T12:07:40.867Z,4.00
2023-05-24T12:10:10.534Z,4.70
2023-05-24T12:15:14.725Z,4.18
2023-05-24T12:17:50.005Z,4.55
2023-05-24T12:22:51.730Z,4.75
2023-05-24T12:25:22.549Z,4.78
2023-05-24T12:27:55.797Z,4.90
2023-05-24T12:30:24.067Z,4.30
2023-05-24T12:32:54.672Z,4.18
2023-05-24T12:35:23.946Z,4.85
2023-05-24T12:38:02.704Z,4.72
2023-05-24T12:40:33.547Z,4.45
2023-05-24T12:43:04.764Z,4.20
2023-05-24T12:45:33.054Z,4.53
2023-05-24T12:48:02.822Z,4.32
2023-05-24T12:50:31.462Z,4.30
2023-05-24T12:52:59.256Z,4.10
2023-05-24T12:55:28.603Z,4.50
2023-05-24T12:57:58.597Z,3.65
2023-05-24T13:00:28.803Z,4.47
2023-05-24T13:02:58.899Z,3.95
2023-05-24T13:05:30.087Z,3.90
2023-05-24T13:07:58.170Z,4.53
2023-05-24T13:10:27.622Z,3.92
2023-05-24T13:12:56.202Z,4.32
2023-05-24T13:15:24.098Z,3.75
2023-05-24T13:17:52.098Z,4.00
2023-05-24T13:20:22.184Z,3.65
2023-05-24T13:22:51.567Z,4.32
2023-05-24T13:25:22.453Z,3.85
2023-05-24T13:27:50.452Z,3.42
2023-05-24T13:30:18.768Z,4.20
2023-05-24T13:32:46.720Z,4.20
2023-05-24T13:35:14.710Z,4.00
2023-05-24T13:37:42.663Z,3.70
2023-05-24T13:40:12.619Z,4.15
2023-05-24T13:42:41.136Z,4.68
2023-05-24T13:45:11.659Z,4.35
2023-05-24T13:47:41.062Z,3.90
2023-05-24T13:50:11.160Z,3.00
2023-05-24T13:52:39.620Z,3.70
2023-05-24T13:55:08.969Z,2.90
2023-05-24T14:00:11.072Z,3.33
2023-05-24T14:02:39.567Z,3.60
2023-05-24T14:05:25.748Z,3.58
2023-05-24T14:07:57.461Z,4.15
2023-05-24T14:10:25.488Z,3.60
2023-05-24T14:13:11.271Z,3.83
2023-05-24T14:15:42.193Z,3.05
2023-05-24T14:18:10.887Z,3.50
2023-05-24T14:20:40.415Z,2.95
2023-05-24T14:23:08.881Z,3.05
2023-05-24T14:25:36.948Z,3.38
2023-05-24T14:28:08.514Z,2.60
2023-05-24T14:30:37.880Z,3.50
2023-05-24T14:33:08.008Z,3.83
2023-05-24T14:35:39.611Z,3.00
2023-05-24T14:38:10.836Z,3.30
2023-05-24T14:40:40.133Z,3.72
2023-05-24T14:43:10.662Z,3.35
2023-05-24T14:45:41.613Z,3.47
2023-05-24T14:48:11.727Z,3.40
2023-05-24T14:50:41.256Z,3.55
2023-05-24T14:53:11.863Z,2.95
2023-05-24T14:55:42.466Z,3.10
2023-05-24T14:58:12.568Z,3.30
2023-05-24T15:00:43.193Z,3.70
2023-05-24T15:03:12.797Z,3.50
2023-05-24T15:05:42.664Z,3.90
2023-05-24T15:08:13.783Z,3.67
2023-05-24T15:10:44.488Z,3.75
2023-05-24T15:13:14.453Z,3.03
2023-05-24T15:15:42.293Z,3.22
2023-05-24T15:18:10.491Z,3.17
2023-05-24T15:20:38.404Z,3.40
2023-05-24T15:23:06.462Z,2.75
2023-05-24T15:25:34.235Z,2.53
2023-05-24T15:28:02.279Z,3.33
2023-05-24T15:30:31.594Z,3.33
2023-05-24T15:32:59.486Z,2.53
2023-05-24T15:35:27.269Z,3.08
2023-05-24T15:37:55.071Z,1.85
2023-05-24T15:40:24.437Z,2.90
2023-05-24T15:42:53.005Z,2.78
2023-05-24T15:45:21.352Z,3.15
2023-05-24T15:47:50.820Z,2.88
2023-05-24T15:50:25.835Z,2.90
2023-05-24T15:52:59.867Z,2.90
2023-05-24T15:55:28.054Z,3.20
2023-05-24T15:57:57.699Z,2.88
2023-05-24T16:00:25.835Z,3.33
2023-05-24T16:02:56.982Z,3.67
2023-05-24T16:05:25.749Z,2.90
2023-05-24T16:07:53.687Z,2.90
2023-05-24T16:10:21.653Z,3.35
2023-05-24T16:12:49.601Z,3.40
2023-05-24T16:15:17.775Z,3.15
2023-05-24T16:17:45.762Z,3.28
2023-05-24T16:20:15.222Z,2.88
2023-05-24T16:22:49.246Z,3.35
2023-05-24T16:25:17.190Z,3.42
2023-05-24T16:27:45.011Z,3.33
2023-05-24T16:30:14.835Z,3.30
2023-05-24T16:32:45.072Z,2.75
2023-05-24T16:35:13.187Z,3.60
2023-05-24T16:37:42.353Z,3.30
2023-05-24T16:40:11.764Z,3.47
2023-05-24T16:42:39.707Z,3.03
2023-05-24T16:45:08.796Z,3.28
2023-05-24T16:47:37.239Z,3.42
2023-05-24T16:50:06.891Z,3.70
2023-05-24T16:52:35.124Z,3.10
2023-05-24T16:55:05.922Z,2.85
2023-05-24T16:57:35.373Z,2.65
2023-05-24T17:00:03.997Z,3.53
2023-05-24T17:02:32.170Z,3.17
2023-05-24T17:05:00.236Z,3.20
2023-05-24T17:07:28.118Z,3.10
2023-05-24T17:09:55.884Z,3.40
2023-05-24T17:12:25.128Z,3.28
2023-05-24T17:14:52.953Z,3.10
2023-05-24T17:17:20.980Z,2.92
2023-05-24T17:19:48.930Z,3.20
2023-05-24T17:22:16.776Z,3.38
2023-05-24T17:24:44.636Z,3.50
2023-05-24T17:27:13.086Z,2.60
2023-05-24T17:29:44.426Z,3.45
2023-05-24T17:32:12.305Z,2.90
2023-05-24T17:34:40.231Z,3.33
2023-05-24T17:37:08.196Z,3.65
2023-05-24T17:39:36.005Z,3.60
2023-05-24T17:42:04.717Z,3.35
2023-05-24T17:44:32.725Z,3.30
2023-05-24T17:47:02.062Z,3.10
2023-05-24T17:49:30.066Z,3.90
2023-05-24T17:52:00.530Z,3.97
2023-05-24T17:54:29.019Z,3.75
2023-05-24T17:56:57.017Z,3.30
2023-05-24T17:59:24.907Z,3.47
2023-05-24T18:01:52.797Z,3.58
2023-05-24T18:04:21.982Z,3.92
2023-05-24T18:06:49.953Z,3.10
2023-05-24T18:09:18.016Z,3.30
2023-05-24T18:11:45.865Z,3.80
2023-05-24T18:14:13.735Z,3.20
2023-05-24T18:16:42.889Z,3.15
2023-05-24T18:19:10.848Z,3.25
2023-05-24T18:21:40.954Z,3.42
2023-05-24T18:24:08.904Z,3.03
2023-05-24T18:26:36.919Z,2.92
2023-05-24T18:29:04.727Z,3.15
2023-05-24T18:31:32.519Z,3.28
2023-05-24T18:34:01.825Z,2.97
2023-05-24T18:36:30.253Z,3.33
2023-05-24T18:38:59.532Z,3.30
2023-05-24T18:41:27.326Z,3.47
2023-05-24T18:43:55.158Z,3.55
2023-05-24T18:46:23.098Z,3.10
2023-05-24T18:48:52.679Z,3.20
2023-05-24T18:51:20.718Z,3.00
2023-05-24T18:53:50.460Z,3.35
2023-05-24T18:56:19.800Z,3.55
2023-05-24T18:58:49.801Z,2.90
2023-05-24T19:01:17.968Z,3.00
2023-05-24T19:03:45.961Z,3.00
2023-05-24T19:06:14.557Z,3.10
2023-05-24T19:08:42.836Z,3.30
2023-05-24T19:11:11.397Z,3.10
2023-05-24T19:13:41.547Z,2.75
2023-05-24T19:16:09.995Z,3.15
2023-05-24T19:18:38.012Z,3.38
2023-05-24T19:21:06.222Z,3.30
2023-05-24T19:23:34.135Z,3.10
2023-05-24T19:26:02.032Z,2.95
2023-05-24T19:28:30.499Z,3.20
2023-05-24T19:31:02.402Z,3.42
2023-05-24T19:33:30.356Z,3.22
2023-05-24T19:35:58.197Z,3.08
2023-05-24T19:38:26.376Z,3.30
2023-05-24T19:40:54.221Z,3.40
2023-05-24T19:43:22.005Z,3.30
2023-05-24T19:45:51.757Z,3.28
2023-05-24T19:48:21.684Z,3.25
2023-05-24T19:50:50.468Z,3.30
2023-05-24T19:53:18.352Z,3.20
2023-05-24T19:55:46.318Z,3.50
2023-05-24T19:58:14.367Z,3.30
2023-05-24T20:00:42.750Z,3.03
2023-05-24T20:03:10.836Z,3.78
2023-05-24T20:05:40.581Z,3.40
2023-05-24T20:08:08.517Z,3.42
2023-05-24T20:10:38.747Z,3.80
2023-05-24T20:13:06.709Z,3.47
2023-05-24T20:15:34.622Z,3.38
2023-05-24T20:18:02.561Z,3.42
2023-05-24T20:20:30.509Z,3.38
2023-05-24T20:23:00.032Z,3.30
2023-05-24T20:25:27.924Z,3.55
2023-05-24T20:27:55.911Z,3.40
2023-05-24T20:30:23.777Z,3.33
2023-05-24T20:32:51.749Z,3.70
2023-05-24T20:35:19.620Z,3.30
2023-05-24T20:37:47.509Z,3.70
2023-05-24T20:40:23.946Z,3.50
2023-05-24T20:42:52.193Z,3.90
2023-05-24T20:45:20.042Z,3.40
2023-05-24T20:47:47.944Z,3.50
2023-05-24T20:50:16.099Z,3.60
2023-05-24T20:52:44.007Z,3.63
2023-05-24T20:55:12.089Z,3.90
2023-05-24T20:57:41.528Z,3.43
2023-05-24T21:00:10.766Z,3.63
2023-05-24T21:02:40.318Z,3.63
2023-05-24T21:05:09.685Z,3.90
2023-05-24T21:07:37.511Z,3.97
2023-05-24T21:10:07.719Z,3.83
2023-05-24T21:12:35.815Z,4.03
2023-05-24T21:15:06.730Z,3.90
2023-05-24T21:17:34.706Z,3.97
2023-05-24T21:20:04.042Z,4.40
2023-05-24T21:22:32.261Z,4.03
2023-05-24T21:25:00.203Z,4.77
2023-05-24T21:27:28.180Z,3.80
2023-05-24T21:29:56.117Z,4.07
2023-05-24T21:32:25.415Z,4.03
2023-05-24T21:34:53.330Z,4.40
2023-05-24T21:37:21.156Z,4.40
2023-05-24T21:39:50.095Z,4.43
2023-05-24T21:42:18.016Z,4.57
2023-05-24T21:44:45.825Z,4.40
2023-05-24T21:47:13.865Z,4.17
2023-05-24T21:49:43.126Z,4.57
2023-05-24T21:52:11.078Z,4.10
2023-05-24T21:54:38.973Z,4.60
2023-05-24T21:57:07.181Z,5.70
2023-05-24T21:59:35.160Z,4.80
2023-05-24T22:02:03.373Z,4.10
2023-05-24T22:04:31.315Z,5.07
2023-05-24T22:07:00.775Z,5.20
2023-05-24T22:09:28.581Z,5.10
2023-05-24T22:11:56.483Z,5.00
2023-05-24T22:14:24.290Z,4.97
2023-05-24T22:16:52.260Z,5.13
2023-05-24T22:19:38.511Z,5.00
2023-05-24T22:22:09.903Z,5.10
2023-05-24T22:24:37.821Z,5.17
2023-05-24T22:27:09.525Z,4.93
2023-05-24T22:29:37.410Z,5.60
2023-05-24T22:32:05.967Z,5.20
2023-05-24T22:34:33.860Z,5.20
2023-05-24T22:37:01.627Z,5.40
2023-05-24T22:39:31.052Z,4.93
2023-05-24T22:41:59.007Z,5.00
2023-05-24T22:44:26.950Z,5.03
2023-05-24T22:46:54.825Z,4.60
2023-05-24T22:49:22.900Z,4.77
2023-05-24T22:51:51.110Z,5.40
2023-05-24T22:54:19.984Z,4.87
2023-05-24T22:56:49.252Z,5.27
2023-05-24T22:59:17.288Z,5.50
2023-05-24T23:01:45.260Z,4.97
2023-05-24T23:06:47.377Z,5.53
2023-05-24T23:09:15.233Z,5.10
2023-05-24T23:11:43.186Z,5.27
2023-05-24T23:14:12.268Z,5.70
2023-05-24T23:16:45.712Z,5.50
2023-05-24T23:19:18.091Z,6.13
2023-05-24T23:21:46.313Z,5.37
2023-05-24T23:24:15.678Z,5.90
2023-05-24T23:26:43.817Z,5.37
2023-05-24T23:29:13.419Z,5.33
2023-05-24T23:31:41.655Z,5.43
2023-05-24T23:34:09.592Z,5.80
2023-05-24T23:36:37.450Z,5.83
2023-05-24T23:39:06.125Z,5.80
2023-05-24T23:41:33.993Z,6.03
2023-05-24T23:44:01.814Z,6.20
2023-05-24T23:46:31.191Z,6.40
2023-05-24T23:48:59.945Z,6.40
2023-05-24T23:51:32.807Z,6.47
2023-05-24T23:54:01.487Z,6.47
2023-05-24T23:56:29.520Z,6.73
2023-05-24T23:58:57.550Z,6.50
